sensor_id;sensor_type;location;lat;lon;timestamp;temperature;humidity
52531;DHT22;38441;52.894;6.040;2022-08-14T00:01:49;23.60;99.90
52531;DHT22;38441;52.894;6.040;2022-08-14T00:04:15;22.80;99.90
52531;DHT22;38441;52.894;6.040;2022-08-14T00:06:41;22.60;99.90
52531;DHT22;38441;52.894;6.040;2022-08-14T00:09:06;23.00;99.90
52531;DHT22;38441;52.894;6.040;2022-08-14T00:11:32;23.90;99.90
52531;DHT22;38441;52.894;6.040;2022-08-14T00:14:00;23.60;99.90
52531;DHT22;38441;52.894;6.040;2022-08-14T00:16:25;25.10;99.90
52531;DHT22;38441;52.894;6.040;2022-08-14T00:18:51;23.40;99.90
52531;DHT22;38441;52.894;6.040;2022-08-14T00:21:17;22.00;99.90
52531;DHT22;38441;52.894;6.040;2022-08-14T00:23:43;22.10;99.90
52531;DHT22;38441;52.894;6.040;2022-08-14T00:26:08;23.10;99.90
52531;DHT22;38441;52.894;6.040;2022-08-14T00:28:34;23.40;99.90
52531;DHT22;38441;52.894;6.040;2022-08-14T00:31:00;23.00;99.90
52531;DHT22;38441;52.894;6.040;2022-08-14T00:33:28;22.20;99.90
52531;DHT22;38441;52.894;6.040;2022-08-14T00:35:54;23.00;99.90
52531;DHT22;38441;52.894;6.040;2022-08-14T00:38:20;22.00;99.90
52531;DHT22;38441;52.894;6.040;2022-08-14T00:40:47;23.70;99.90
52531;DHT22;38441;52.894;6.040;2022-08-14T00:43:13;21.90;99.90
52531;DHT22;38441;52.894;6.040;2022-08-14T00:45:40;22.00;99.90
52531;DHT22;38441;52.894;6.040;2022-08-14T00:48:05;22.70;99.90
52531;DHT22;38441;52.894;6.040;2022-08-14T00:50:31;22.10;99.90
52531;DHT22;38441;52.894;6.040;2022-08-14T00:52:58;23.20;99.90
52531;DHT22;38441;52.894;6.040;2022-08-14T00:55:25;24.40;99.90
52531;DHT22;38441;52.894;6.040;2022-08-14T00:57:52;22.00;99.90
52531;DHT22;38441;52.894;6.040;2022-08-14T01:00:37;21.70;99.90
52531;DHT22;38441;52.894;6.040;2022-08-14T01:03:04;22.10;99.90
52531;DHT22;38441;52.894;6.040;2022-08-14T01:05:30;22.20;99.90
52531;DHT22;38441;52.894;6.040;2022-08-14T01:07:57;24.70;99.90
52531;DHT22;38441;52.894;6.040;2022-08-14T01:10:29;22.00;99.90
52531;DHT22;38441;52.894;6.040;2022-08-14T01:13:34;23.10;99.90
52531;DHT22;38441;52.894;6.040;2022-08-14T01:16:03;23.60;99.90
52531;DHT22;38441;52.894;6.040;2022-08-14T01:18:31;22.20;99.90
52531;DHT22;38441;52.894;6.040;2022-08-14T01:23:59;22.90;99.90
52531;DHT22;38441;52.894;6.040;2022-08-14T01:26:26;22.90;99.90
52531;DHT22;38441;52.894;6.040;2022-08-14T01:28:54;22.90;99.90
52531;DHT22;38441;52.894;6.040;2022-08-14T01:31:30;23.20;99.90
52531;DHT22;38441;52.894;6.040;2022-08-14T01:34:00;22.30;99.90
52531;DHT22;38441;52.894;6.040;2022-08-14T01:36:27;21.60;99.90
52531;DHT22;38441;52.894;6.040;2022-08-14T01:39:02;21.10;99.90
52531;DHT22;38441;52.894;6.040;2022-08-14T01:41:28;21.20;99.90
52531;DHT22;38441;52.894;6.040;2022-08-14T01:43:57;21.30;99.90
52531;DHT22;38441;52.894;6.040;2022-08-14T01:46:27;22.10;99.90
52531;DHT22;38441;52.894;6.040;2022-08-14T01:48:54;23.30;99.90
52531;DHT22;38441;52.894;6.040;2022-08-14T01:51:23;20.80;99.90
52531;DHT22;38441;52.894;6.040;2022-08-14T01:53:54;20.70;99.90
52531;DHT22;38441;52.894;6.040;2022-08-14T01:56:21;20.80;99.90
52531;DHT22;38441;52.894;6.040;2022-08-14T01:58:49;22.30;99.90
52531;DHT22;38441;52.894;6.040;2022-08-14T02:01:17;20.60;99.90
52531;DHT22;38441;52.894;6.040;2022-08-14T02:03:43;22.30;99.90
52531;DHT22;38441;52.894;6.040;2022-08-14T02:06:10;20.90;99.90
52531;DHT22;38441;52.894;6.040;2022-08-14T02:08:37;22.20;99.90
52531;DHT22;38441;52.894;6.040;2022-08-14T02:11:06;21.90;99.90
52531;DHT22;38441;52.894;6.040;2022-08-14T02:13:49;20.70;99.90
52531;DHT22;38441;52.894;6.040;2022-08-14T02:16:17;22.00;99.90
52531;DHT22;38441;52.894;6.040;2022-08-14T02:18:43;20.70;99.90
52531;DHT22;38441;52.894;6.040;2022-08-14T02:21:11;20.50;99.90
52531;DHT22;38441;52.894;6.040;2022-08-14T02:23:44;21.60;99.90
52531;DHT22;38441;52.894;6.040;2022-08-14T02:26:19;21.70;99.90
52531;DHT22;38441;52.894;6.040;2022-08-14T02:28:47;20.80;99.90
52531;DHT22;38441;52.894;6.040;2022-08-14T02:31:14;19.00;99.90
52531;DHT22;38441;52.894;6.040;2022-08-14T02:33:40;20.50;99.90
52531;DHT22;38441;52.894;6.040;2022-08-14T02:36:08;22.50;99.90
52531;DHT22;38441;52.894;6.040;2022-08-14T02:38:35;22.20;99.90
52531;DHT22;38441;52.894;6.040;2022-08-14T02:41:01;21.80;99.90
52531;DHT22;38441;52.894;6.040;2022-08-14T02:43:26;22.80;99.90
52531;DHT22;38441;52.894;6.040;2022-08-14T02:45:55;21.70;99.90
52531;DHT22;38441;52.894;6.040;2022-08-14T02:48:21;21.90;99.90
52531;DHT22;38441;52.894;6.040;2022-08-14T02:50:46;22.10;99.90
52531;DHT22;38441;52.894;6.040;2022-08-14T02:53:13;20.40;99.90
52531;DHT22;38441;52.894;6.040;2022-08-14T02:55:41;21.60;99.90
52531;DHT22;38441;52.894;6.040;2022-08-14T02:58:08;21.40;99.90
52531;DHT22;38441;52.894;6.040;2022-08-14T03:00:34;20.50;99.90
52531;DHT22;38441;52.894;6.040;2022-08-14T03:03:03;21.60;99.90
52531;DHT22;38441;52.894;6.040;2022-08-14T03:05:29;20.40;99.90
52531;DHT22;38441;52.894;6.040;2022-08-14T03:08:04;21.90;99.90
52531;DHT22;38441;52.894;6.040;2022-08-14T03:10:30;22.10;99.90
52531;DHT22;38441;52.894;6.040;2022-08-14T03:12:56;23.00;99.90
52531;DHT22;38441;52.894;6.040;2022-08-14T03:15:22;20.50;99.90
52531;DHT22;38441;52.894;6.040;2022-08-14T03:17:47;20.20;99.90
52531;DHT22;38441;52.894;6.040;2022-08-14T03:20:17;20.90;99.90
52531;DHT22;38441;52.894;6.040;2022-08-14T03:22:43;21.70;99.90
52531;DHT22;38441;52.894;6.040;2022-08-14T03:25:08;22.20;99.90
52531;DHT22;38441;52.894;6.040;2022-08-14T03:27:37;21.80;99.90
52531;DHT22;38441;52.894;6.040;2022-08-14T03:30:04;21.40;99.90
52531;DHT22;38441;52.894;6.040;2022-08-14T03:32:29;20.40;99.90
52531;DHT22;38441;52.894;6.040;2022-08-14T03:34:58;20.10;99.90
52531;DHT22;38441;52.894;6.040;2022-08-14T03:37:24;20.20;99.90
52531;DHT22;38441;52.894;6.040;2022-08-14T03:39:52;20.00;99.90
52531;DHT22;38441;52.894;6.040;2022-08-14T03:42:17;20.20;99.90
52531;DHT22;38441;52.894;6.040;2022-08-14T03:44:43;22.90;99.90
52531;DHT22;38441;52.894;6.040;2022-08-14T03:47:10;20.10;99.90
52531;DHT22;38441;52.894;6.040;2022-08-14T03:49:36;20.20;99.90
52531;DHT22;38441;52.894;6.040;2022-08-14T03:52:03;20.10;99.90
52531;DHT22;38441;52.894;6.040;2022-08-14T03:54:29;20.60;99.90
52531;DHT22;38441;52.894;6.040;2022-08-14T03:56:56;20.00;99.90
52531;DHT22;38441;52.894;6.040;2022-08-14T03:59:25;20.10;99.90
52531;DHT22;38441;52.894;6.040;2022-08-14T04:01:51;20.90;99.90
52531;DHT22;38441;52.894;6.040;2022-08-14T04:04:17;20.50;99.90
52531;DHT22;38441;52.894;6.040;2022-08-14T04:06:43;20.60;99.90
52531;DHT22;38441;52.894;6.040;2022-08-14T04:09:08;20.10;99.90
52531;DHT22;38441;52.894;6.040;2022-08-14T04:11:35;21.40;99.90
52531;DHT22;38441;52.894;6.040;2022-08-14T04:14:02;20.00;99.90
52531;DHT22;38441;52.894;6.040;2022-08-14T04:16:28;21.10;99.90
52531;DHT22;38441;52.894;6.040;2022-08-14T04:18:56;22.30;99.90
52531;DHT22;38441;52.894;6.040;2022-08-14T04:21:23;19.70;99.90
52531;DHT22;38441;52.894;6.040;2022-08-14T04:23:53;18.70;99.90
52531;DHT22;38441;52.894;6.040;2022-08-14T04:26:19;19.70;99.90
52531;DHT22;38441;52.894;6.040;2022-08-14T04:28:48;19.80;99.90
52531;DHT22;38441;52.894;6.040;2022-08-14T04:31:17;20.80;99.90
52531;DHT22;38441;52.894;6.040;2022-08-14T04:33:43;20.90;99.90
52531;DHT22;38441;52.894;6.040;2022-08-14T04:36:09;21.40;99.90
52531;DHT22;38441;52.894;6.040;2022-08-14T04:38:34;21.30;99.90
52531;DHT22;38441;52.894;6.040;2022-08-14T04:41:18;21.20;99.90
52531;DHT22;38441;52.894;6.040;2022-08-14T04:44:04;20.90;99.90
52531;DHT22;38441;52.894;6.040;2022-08-14T04:46:30;21.60;99.90
52531;DHT22;38441;52.894;6.040;2022-08-14T04:49:03;19.60;99.90
52531;DHT22;38441;52.894;6.040;2022-08-14T04:51:28;21.50;99.90
52531;DHT22;38441;52.894;6.040;2022-08-14T04:53:55;21.40;99.90
52531;DHT22;38441;52.894;6.040;2022-08-14T04:56:23;20.80;99.90
52531;DHT22;38441;52.894;6.040;2022-08-14T04:58:51;21.60;99.90
52531;DHT22;38441;52.894;6.040;2022-08-14T05:01:20;21.50;99.90
52531;DHT22;38441;52.894;6.040;2022-08-14T05:03:46;20.90;99.90
52531;DHT22;38441;52.894;6.040;2022-08-14T05:06:12;21.00;99.90
52531;DHT22;38441;52.894;6.040;2022-08-14T05:08:38;20.80;99.90
52531;DHT22;38441;52.894;6.040;2022-08-14T05:11:06;19.70;99.90
52531;DHT22;38441;52.894;6.040;2022-08-14T05:13:33;19.10;99.90
52531;DHT22;38441;52.894;6.040;2022-08-14T05:16:00;19.60;99.90
52531;DHT22;38441;52.894;6.040;2022-08-14T05:18:37;21.40;99.90
52531;DHT22;38441;52.894;6.040;2022-08-14T05:21:06;19.80;99.90
52531;DHT22;38441;52.894;6.040;2022-08-14T05:23:33;19.80;99.90
52531;DHT22;38441;52.894;6.040;2022-08-14T05:26:00;19.60;99.90
52531;DHT22;38441;52.894;6.040;2022-08-14T05:28:30;21.30;99.90
52531;DHT22;38441;52.894;6.040;2022-08-14T05:30:59;19.80;99.90
52531;DHT22;38441;52.894;6.040;2022-08-14T05:33:27;20.20;99.90
52531;DHT22;38441;52.894;6.040;2022-08-14T05:35:55;21.30;99.90
52531;DHT22;38441;52.894;6.040;2022-08-14T05:38:27;19.60;99.90
52531;DHT22;38441;52.894;6.040;2022-08-14T05:40:54;21.10;99.90
52531;DHT22;38441;52.894;6.040;2022-08-14T05:43:21;19.90;99.90
52531;DHT22;38441;52.894;6.040;2022-08-14T05:45:48;21.90;99.90
52531;DHT22;38441;52.894;6.040;2022-08-14T05:48:14;21.20;99.90
52531;DHT22;38441;52.894;6.040;2022-08-14T05:50:43;20.00;99.90
52531;DHT22;38441;52.894;6.040;2022-08-14T05:53:09;20.10;99.90
52531;DHT22;38441;52.894;6.040;2022-08-14T05:55:35;19.30;99.90
52531;DHT22;38441;52.894;6.040;2022-08-14T05:58:03;21.80;99.90
52531;DHT22;38441;52.894;6.040;2022-08-14T06:00:35;21.20;99.90
52531;DHT22;38441;52.894;6.040;2022-08-14T06:03:03;21.20;99.90
52531;DHT22;38441;52.894;6.040;2022-08-14T06:05:29;20.30;99.90
52531;DHT22;38441;52.894;6.040;2022-08-14T06:07:56;20.60;99.90
52531;DHT22;38441;52.894;6.040;2022-08-14T06:10:23;22.40;99.90
52531;DHT22;38441;52.894;6.040;2022-08-14T06:12:48;20.60;99.90
52531;DHT22;38441;52.894;6.040;2022-08-14T06:15:14;20.70;99.90
52531;DHT22;38441;52.894;6.040;2022-08-14T06:17:44;22.70;99.90
52531;DHT22;38441;52.894;6.040;2022-08-14T06:20:10;22.90;99.90
52531;DHT22;38441;52.894;6.040;2022-08-14T06:22:36;23.10;99.90
52531;DHT22;38441;52.894;6.040;2022-08-14T06:25:02;22.70;99.90
52531;DHT22;38441;52.894;6.040;2022-08-14T06:27:33;21.30;99.90
52531;DHT22;38441;52.894;6.040;2022-08-14T06:29:59;24.40;99.90
52531;DHT22;38441;52.894;6.040;2022-08-14T06:32:24;23.50;99.90
52531;DHT22;38441;52.894;6.040;2022-08-14T06:34:50;22.40;99.90
52531;DHT22;38441;52.894;6.040;2022-08-14T06:37:16;22.70;99.90
52531;DHT22;38441;52.894;6.040;2022-08-14T06:39:43;21.70;99.90
52531;DHT22;38441;52.894;6.040;2022-08-14T06:42:08;22.60;99.90
52531;DHT22;38441;52.894;6.040;2022-08-14T06:44:34;21.80;99.90
52531;DHT22;38441;52.894;6.040;2022-08-14T06:47:01;22.10;99.90
52531;DHT22;38441;52.894;6.040;2022-08-14T06:49:27;24.20;99.90
52531;DHT22;38441;52.894;6.040;2022-08-14T06:51:52;20.60;99.90
52531;DHT22;38441;52.894;6.040;2022-08-14T06:54:18;23.70;99.90
52531;DHT22;38441;52.894;6.040;2022-08-14T06:56:44;23.50;99.90
52531;DHT22;38441;52.894;6.040;2022-08-14T06:59:13;24.30;99.90
52531;DHT22;38441;52.894;6.040;2022-08-14T07:01:40;24.00;99.90
52531;DHT22;38441;52.894;6.040;2022-08-14T07:04:24;23.90;99.90
52531;DHT22;38441;52.894;6.040;2022-08-14T07:07:08;24.30;99.90
52531;DHT22;38441;52.894;6.040;2022-08-14T07:09:33;24.20;99.90
52531;DHT22;38441;52.894;6.040;2022-08-14T07:11:59;21.10;99.90
52531;DHT22;38441;52.894;6.040;2022-08-14T07:14:25;24.50;99.90
52531;DHT22;38441;52.894;6.040;2022-08-14T07:16:51;24.50;99.90
52531;DHT22;38441;52.894;6.040;2022-08-14T07:19:17;25.40;99.90
52531;DHT22;38441;52.894;6.040;2022-08-14T07:21:43;23.80;99.90
52531;DHT22;38441;52.894;6.040;2022-08-14T07:24:09;23.50;99.90
52531;DHT22;38441;52.894;6.040;2022-08-14T07:26:34;26.30;99.90
52531;DHT22;38441;52.894;6.040;2022-08-14T07:29:00;25.40;99.90
52531;DHT22;38441;52.894;6.040;2022-08-14T07:31:26;25.80;99.90
52531;DHT22;38441;52.894;6.040;2022-08-14T07:33:51;23.20;99.90
52531;DHT22;38441;52.894;6.040;2022-08-14T07:36:19;25.10;99.90
52531;DHT22;38441;52.894;6.040;2022-08-14T07:38:45;24.10;99.90
52531;DHT22;38441;52.894;6.040;2022-08-14T07:41:11;26.00;99.90
52531;DHT22;38441;52.894;6.040;2022-08-14T07:43:38;25.40;99.90
52531;DHT22;38441;52.894;6.040;2022-08-14T07:46:05;24.40;99.90
52531;DHT22;38441;52.894;6.040;2022-08-14T07:48:31;24.70;99.90
52531;DHT22;38441;52.894;6.040;2022-08-14T07:50:57;24.60;99.90
52531;DHT22;38441;52.894;6.040;2022-08-14T07:53:23;23.60;99.90
52531;DHT22;38441;52.894;6.040;2022-08-14T07:55:49;27.10;99.90
52531;DHT22;38441;52.894;6.040;2022-08-14T07:58:15;26.10;99.90
52531;DHT22;38441;52.894;6.040;2022-08-14T08:00:42;25.10;99.90
52531;DHT22;38441;52.894;6.040;2022-08-14T08:03:09;26.80;99.90
52531;DHT22;38441;52.894;6.040;2022-08-14T08:05:36;27.20;99.90
52531;DHT22;38441;52.894;6.040;2022-08-14T08:08:04;25.10;99.90
52531;DHT22;38441;52.894;6.040;2022-08-14T08:10:30;23.50;99.90
52531;DHT22;38441;52.894;6.040;2022-08-14T08:13:02;25.30;99.90
52531;DHT22;38441;52.894;6.040;2022-08-14T08:15:30;25.60;99.90
52531;DHT22;38441;52.894;6.040;2022-08-14T08:18:01;26.30;99.90
52531;DHT22;38441;52.894;6.040;2022-08-14T08:20:32;27.20;99.90
52531;DHT22;38441;52.894;6.040;2022-08-14T08:22:59;25.40;99.90
52531;DHT22;38441;52.894;6.040;2022-08-14T08:25:35;26.30;99.90
52531;DHT22;38441;52.894;6.040;2022-08-14T08:28:19;27.60;99.90
52531;DHT22;38441;52.894;6.040;2022-08-14T08:30:57;26.30;99.90
52531;DHT22;38441;52.894;6.040;2022-08-14T08:33:26;26.30;99.90
52531;DHT22;38441;52.894;6.040;2022-08-14T08:35:56;26.30;99.90
52531;DHT22;38441;52.894;6.040;2022-08-14T08:38:25;26.70;99.90
52531;DHT22;38441;52.894;6.040;2022-08-14T08:40:54;28.60;99.90
52531;DHT22;38441;52.894;6.040;2022-08-14T08:43:23;26.90;99.90
52531;DHT22;38441;52.894;6.040;2022-08-14T08:45:55;26.90;99.90
52531;DHT22;38441;52.894;6.040;2022-08-14T08:48:22;27.20;99.90
52531;DHT22;38441;52.894;6.040;2022-08-14T08:50:58;27.10;99.90
52531;DHT22;38441;52.894;6.040;2022-08-14T08:53:30;27.30;99.90
52531;DHT22;38441;52.894;6.040;2022-08-14T08:58:23;27.30;99.90
52531;DHT22;38441;52.894;6.040;2022-08-14T09:00:54;27.60;99.90
52531;DHT22;38441;52.894;6.040;2022-08-14T09:03:30;27.20;99.90
52531;DHT22;38441;52.894;6.040;2022-08-14T09:06:02;26.70;98.00
52531;DHT22;38441;52.894;6.040;2022-08-14T09:08:34;27.50;97.30
52531;DHT22;38441;52.894;6.040;2022-08-14T09:11:06;27.70;98.80
52531;DHT22;38441;52.894;6.040;2022-08-14T09:13:34;27.90;96.70
52531;DHT22;38441;52.894;6.040;2022-08-14T09:16:01;27.40;97.80
52531;DHT22;38441;52.894;6.040;2022-08-14T09:18:27;30.90;98.80
52531;DHT22;38441;52.894;6.040;2022-08-14T09:20:55;28.00;97.00
52531;DHT22;38441;52.894;6.040;2022-08-14T09:23:21;29.80;97.80
52531;DHT22;38441;52.894;6.040;2022-08-14T09:25:50;29.40;96.90
52531;DHT22;38441;52.894;6.040;2022-08-14T09:28:17;30.10;98.20
52531;DHT22;38441;52.894;6.040;2022-08-14T09:30:53;28.30;96.10
52531;DHT22;38441;52.894;6.040;2022-08-14T09:33:30;28.40;95.50
52531;DHT22;38441;52.894;6.040;2022-08-14T09:39:09;28.60;94.00
52531;DHT22;38441;52.894;6.040;2022-08-14T09:42:15;28.80;93.90
52531;DHT22;38441;52.894;6.040;2022-08-14T09:45:15;28.90;93.90
52531;DHT22;38441;52.894;6.040;2022-08-14T09:47:54;27.60;93.30
52531;DHT22;38441;52.894;6.040;2022-08-14T09:50:53;31.20;95.40
52531;DHT22;38441;52.894;6.040;2022-08-14T09:53:58;31.30;94.70
52531;DHT22;38441;52.894;6.040;2022-08-14T09:56:49;26.40;92.10
52531;DHT22;38441;52.894;6.040;2022-08-14T11:51:16;31.80;80.10
52531;DHT22;38441;52.894;6.040;2022-08-14T11:54:03;29.30;77.60
52531;DHT22;38441;52.894;6.040;2022-08-14T11:56:45;31.90;83.20
52531;DHT22;38441;52.894;6.040;2022-08-14T12:01:53;32.10;78.80
52531;DHT22;38441;52.894;6.040;2022-08-14T12:04:19;32.00;81.90
52531;DHT22;38441;52.894;6.040;2022-08-14T12:07:00;30.30;83.00
52531;DHT22;38441;52.894;6.040;2022-08-14T12:09:43;32.30;83.20
52531;DHT22;38441;52.894;6.040;2022-08-14T12:12:53;35.00;83.70
52531;DHT22;38441;52.894;6.040;2022-08-14T12:15:56;32.70;84.80
52531;DHT22;38441;52.894;6.040;2022-08-14T12:18:33;34.00;77.50
52531;DHT22;38441;52.894;6.040;2022-08-14T12:33:59;32.60;76.40
52531;DHT22;38441;52.894;6.040;2022-08-14T12:36:33;34.70;79.70
52531;DHT22;38441;52.894;6.040;2022-08-14T12:39:04;32.70;76.50
52531;DHT22;38441;52.894;6.040;2022-08-14T12:41:33;34.50;81.60
52531;DHT22;38441;52.894;6.040;2022-08-14T12:44:05;35.30;82.20
52531;DHT22;38441;52.894;6.040;2022-08-14T12:46:35;34.50;78.20
52531;DHT22;38441;52.894;6.040;2022-08-14T12:51:34;32.80;78.00
52531;DHT22;38441;52.894;6.040;2022-08-14T12:54:12;33.00;76.60
52531;DHT22;38441;52.894;6.040;2022-08-14T12:56:39;32.90;76.50
52531;DHT22;38441;52.894;6.040;2022-08-14T12:59:05;34.50;80.60
52531;DHT22;38441;52.894;6.040;2022-08-14T13:01:34;32.70;77.00
52531;DHT22;38441;52.894;6.040;2022-08-14T13:04:07;33.80;77.20
52531;DHT22;38441;52.894;6.040;2022-08-14T13:06:37;32.90;76.20
52531;DHT22;38441;52.894;6.040;2022-08-14T13:09:04;34.70;77.90
52531;DHT22;38441;52.894;6.040;2022-08-14T13:11:51;33.40;75.20
52531;DHT22;38441;52.894;6.040;2022-08-14T13:14:22;32.90;72.10
52531;DHT22;38441;52.894;6.040;2022-08-14T13:16:56;33.00;76.10
52531;DHT22;38441;52.894;6.040;2022-08-14T13:19:22;34.50;75.10
52531;DHT22;38441;52.894;6.040;2022-08-14T13:21:51;36.00;77.00
52531;DHT22;38441;52.894;6.040;2022-08-14T13:24:21;35.10;75.30
52531;DHT22;38441;52.894;6.040;2022-08-14T13:26:50;34.10;75.40
52531;DHT22;38441;52.894;6.040;2022-08-14T13:29:21;32.70;76.50
52531;DHT22;38441;52.894;6.040;2022-08-14T13:31:50;31.80;75.30
52531;DHT22;38441;52.894;6.040;2022-08-14T13:34:24;34.10;77.10
52531;DHT22;38441;52.894;6.040;2022-08-14T13:36:51;32.00;75.80
52531;DHT22;38441;52.894;6.040;2022-08-14T13:39:22;32.10;75.40
52531;DHT22;38441;52.894;6.040;2022-08-14T13:44:25;32.00;72.50
52531;DHT22;38441;52.894;6.040;2022-08-14T13:46:51;31.30;75.90
52531;DHT22;38441;52.894;6.040;2022-08-14T13:51:57;32.20;72.00
52531;DHT22;38441;52.894;6.040;2022-08-14T13:54:28;33.40;74.60
52531;DHT22;38441;52.894;6.040;2022-08-14T13:57:01;33.40;75.60
52531;DHT22;38441;52.894;6.040;2022-08-14T13:59:33;32.80;77.00
52531;DHT22;38441;52.894;6.040;2022-08-14T14:02:06;32.50;73.80
52531;DHT22;38441;52.894;6.040;2022-08-14T14:04:38;34.30;77.60
52531;DHT22;38441;52.894;6.040;2022-08-14T14:12:27;32.80;71.00
52531;DHT22;38441;52.894;6.040;2022-08-14T14:15:35;30.70;73.30
52531;DHT22;38441;52.894;6.040;2022-08-14T14:23:13;32.60;71.60
52531;DHT22;38441;52.894;6.040;2022-08-14T14:25:42;33.80;77.10
52531;DHT22;38441;52.894;6.040;2022-08-14T14:28:13;33.30;73.40
52531;DHT22;38441;52.894;6.040;2022-08-14T14:33:20;32.40;71.20
52531;DHT22;38441;52.894;6.040;2022-08-14T14:35:46;34.90;75.50
52531;DHT22;38441;52.894;6.040;2022-08-14T14:38:18;33.00;73.50
52531;DHT22;38441;52.894;6.040;2022-08-14T14:41:19;34.60;72.30
52531;DHT22;38441;52.894;6.040;2022-08-14T14:43:49;37.20;76.50
52531;DHT22;38441;52.894;6.040;2022-08-14T14:46:19;32.90;74.20
52531;DHT22;38441;52.894;6.040;2022-08-14T14:48:52;34.30;74.20
52531;DHT22;38441;52.894;6.040;2022-08-14T14:51:27;34.50;71.00
52531;DHT22;38441;52.894;6.040;2022-08-14T14:53:56;34.50;79.10
52531;DHT22;38441;52.894;6.040;2022-08-14T14:56:31;34.30;78.60
52531;DHT22;38441;52.894;6.040;2022-08-14T14:58:59;32.40;78.10
52531;DHT22;38441;52.894;6.040;2022-08-14T15:01:37;35.90;73.60
52531;DHT22;38441;52.894;6.040;2022-08-14T15:04:07;35.40;77.10
52531;DHT22;38441;52.894;6.040;2022-08-14T15:06:34;34.60;76.20
52531;DHT22;38441;52.894;6.040;2022-08-14T15:09:01;33.00;80.30
52531;DHT22;38441;52.894;6.040;2022-08-14T15:11:28;31.50;77.80
52531;DHT22;38441;52.894;6.040;2022-08-14T15:14:10;33.80;81.00
52531;DHT22;38441;52.894;6.040;2022-08-14T15:52:49;30.60;76.70
52531;DHT22;38441;52.894;6.040;2022-08-14T15:55:16;32.00;82.70
52531;DHT22;38441;52.894;6.040;2022-08-14T15:57:47;31.00;81.30
52531;DHT22;38441;52.894;6.040;2022-08-14T16:00:13;30.20;81.40
52531;DHT22;38441;52.894;6.040;2022-08-14T16:02:57;30.10;82.00
52531;DHT22;38441;52.894;6.040;2022-08-14T16:05:23;32.30;86.70
52531;DHT22;38441;52.894;6.040;2022-08-14T16:07:52;32.00;85.80
52531;DHT22;38441;52.894;6.040;2022-08-14T16:10:18;32.40;86.00
52531;DHT22;38441;52.894;6.040;2022-08-14T16:12:45;32.80;88.20
52531;DHT22;38441;52.894;6.040;2022-08-14T16:15:11;29.20;86.40
52531;DHT22;38441;52.894;6.040;2022-08-14T16:17:38;30.00;87.20
52531;DHT22;38441;52.894;6.040;2022-08-14T16:20:06;29.90;83.90
52531;DHT22;38441;52.894;6.040;2022-08-14T16:22:33;29.70;83.30
52531;DHT22;38441;52.894;6.040;2022-08-14T16:25:00;30.40;85.80
52531;DHT22;38441;52.894;6.040;2022-08-14T16:27:26;31.40;84.40
52531;DHT22;38441;52.894;6.040;2022-08-14T16:29:52;31.60;85.20
52531;DHT22;38441;52.894;6.040;2022-08-14T16:32:18;29.70;86.90
52531;DHT22;38441;52.894;6.040;2022-08-14T16:34:44;29.70;85.00
52531;DHT22;38441;52.894;6.040;2022-08-14T16:37:12;29.80;83.90
52531;DHT22;38441;52.894;6.040;2022-08-14T16:39:42;29.70;83.00
52531;DHT22;38441;52.894;6.040;2022-08-14T16:42:11;29.60;82.10
52531;DHT22;38441;52.894;6.040;2022-08-14T16:44:38;29.90;83.10
52531;DHT22;38441;52.894;6.040;2022-08-14T16:47:08;30.40;82.70
52531;DHT22;38441;52.894;6.040;2022-08-14T16:49:37;29.60;83.10
52531;DHT22;38441;52.894;6.040;2022-08-14T16:52:08;31.50;84.40
52531;DHT22;38441;52.894;6.040;2022-08-14T16:54:35;29.70;83.60
52531;DHT22;38441;52.894;6.040;2022-08-14T16:57:19;32.40;88.40
52531;DHT22;38441;52.894;6.040;2022-08-14T16:59:51;29.60;83.90
52531;DHT22;38441;52.894;6.040;2022-08-14T17:02:17;32.00;85.60
52531;DHT22;38441;52.894;6.040;2022-08-14T17:04:45;31.80;85.40
52531;DHT22;38441;52.894;6.040;2022-08-14T17:07:12;31.10;86.50
52531;DHT22;38441;52.894;6.040;2022-08-14T17:09:42;31.60;90.30
52531;DHT22;38441;52.894;6.040;2022-08-14T17:12:21;29.40;84.80
52531;DHT22;38441;52.894;6.040;2022-08-14T17:17:41;27.00;81.70
52531;DHT22;38441;52.894;6.040;2022-08-14T17:20:12;30.30;86.70
52531;DHT22;38441;52.894;6.040;2022-08-14T17:22:58;31.40;87.80
52531;DHT22;38441;52.894;6.040;2022-08-14T17:25:32;29.90;86.60
52531;DHT22;38441;52.894;6.040;2022-08-14T17:28:17;30.10;87.10
52531;DHT22;38441;52.894;6.040;2022-08-14T17:30:54;29.10;85.30
52531;DHT22;38441;52.894;6.040;2022-08-14T17:33:27;30.90;89.10
52531;DHT22;38441;52.894;6.040;2022-08-14T17:38:59;29.00;87.10
52531;DHT22;38441;52.894;6.040;2022-08-14T17:41:26;28.80;86.90
52531;DHT22;38441;52.894;6.040;2022-08-14T17:43:53;32.00;90.60
52531;DHT22;38441;52.894;6.040;2022-08-14T17:46:44;29.20;90.70
52531;DHT22;38441;52.894;6.040;2022-08-14T17:49:21;31.90;91.50
52531;DHT22;38441;52.894;6.040;2022-08-14T17:52:07;29.20;90.40
52531;DHT22;38441;52.894;6.040;2022-08-14T17:54:36;28.50;90.60
52531;DHT22;38441;52.894;6.040;2022-08-14T17:57:12;28.50;90.60
52531;DHT22;38441;52.894;6.040;2022-08-14T17:59:40;29.80;91.40
52531;DHT22;38441;52.894;6.040;2022-08-14T18:02:09;30.10;91.60
52531;DHT22;38441;52.894;6.040;2022-08-14T18:04:36;29.10;91.20
52531;DHT22;38441;52.894;6.040;2022-08-14T18:07:07;31.30;92.10
52531;DHT22;38441;52.894;6.040;2022-08-14T18:09:37;28.50;91.60
52531;DHT22;38441;52.894;6.040;2022-08-14T18:12:03;28.50;91.50
52531;DHT22;38441;52.894;6.040;2022-08-14T18:14:33;28.30;91.50
52531;DHT22;38441;52.894;6.040;2022-08-14T18:17:01;28.20;91.30
52531;DHT22;38441;52.894;6.040;2022-08-14T18:19:29;30.00;92.80
52531;DHT22;38441;52.894;6.040;2022-08-14T18:21:57;28.10;91.50
52531;DHT22;38441;52.894;6.040;2022-08-14T18:24:25;27.80;91.60
52531;DHT22;38441;52.894;6.040;2022-08-14T18:27:01;30.10;92.70
52531;DHT22;38441;52.894;6.040;2022-08-14T18:29:27;27.60;90.90
52531;DHT22;38441;52.894;6.040;2022-08-14T18:31:58;28.40;92.30
52531;DHT22;38441;52.894;6.040;2022-08-14T18:34:36;28.10;92.70
52531;DHT22;38441;52.894;6.040;2022-08-14T18:37:03;29.50;93.20
52531;DHT22;38441;52.894;6.040;2022-08-14T18:39:31;27.70;93.60
52531;DHT22;38441;52.894;6.040;2022-08-14T18:47:23;29.10;93.30
52531;DHT22;38441;52.894;6.040;2022-08-14T18:52:46;29.00;93.60
52531;DHT22;38441;52.894;6.040;2022-08-14T19:03:02;26.90;95.20
52531;DHT22;38441;52.894;6.040;2022-08-14T19:10:45;26.70;96.70
52531;DHT22;38441;52.894;6.040;2022-08-14T19:13:12;26.70;95.60
52531;DHT22;38441;52.894;6.040;2022-08-14T19:15:42;26.90;95.60
52531;DHT22;38441;52.894;6.040;2022-08-14T19:18:25;26.40;95.70
52531;DHT22;38441;52.894;6.040;2022-08-14T19:20:57;27.20;96.80
52531;DHT22;38441;52.894;6.040;2022-08-14T19:23:32;28.50;97.20
52531;DHT22;38441;52.894;6.040;2022-08-14T19:26:00;26.40;96.00
52531;DHT22;38441;52.894;6.040;2022-08-14T19:28:28;26.20;97.10